sensor_id;sensor_type;location;lat;lon;timestamp;P1;durP1;ratioP1;P2;durP2;ratioP2
34876;SDS011;21086;44.780;17.194;2023-09-18T00:00:00;4.95;;;2.03;;
34876;SDS011;21086;44.780;17.194;2023-09-18T00:02:48;4.63;;;2.70;;
34876;SDS011;21086;44.780;17.194;2023-09-18T00:05:37;3.67;;;2.33;;
34876;SDS011;21086;44.780;17.194;2023-09-18T00:08:24;3.88;;;2.50;;
34876;SDS011;21086;44.780;17.194;2023-09-18T00:11:12;4.40;;;2.47;;
34876;SDS011;21086;44.780;17.194;2023-09-18T00:13:59;2.95;;;2.50;;
34876;SDS011;21086;44.780;17.194;2023-09-18T00:16:47;3.85;;;2.00;;
34876;SDS011;21086;44.780;17.194;2023-09-18T00:19:44;4.03;;;2.72;;
34876;SDS011;21086;44.780;17.194;2023-09-18T00:22:33;3.40;;;2.40;;
34876;SDS011;21086;44.780;17.194;2023-09-18T00:25:21;5.40;;;2.70;;
34876;SDS011;21086;44.780;17.194;2023-09-18T00:28:09;4.05;;;2.03;;
34876;SDS011;21086;44.780;17.194;2023-09-18T00:30:56;4.25;;;2.30;;
34876;SDS011;21086;44.780;17.194;2023-09-18T00:33:44;3.20;;;2.42;;
34876;SDS011;21086;44.780;17.194;2023-09-18T00:36:31;3.92;;;2.47;;
34876;SDS011;21086;44.780;17.194;2023-09-18T00:39:18;3.80;;;2.65;;
34876;SDS011;21086;44.780;17.194;2023-09-18T00:42:06;5.43;;;2.58;;
34876;SDS011;21086;44.780;17.194;2023-09-18T00:44:53;5.32;;;2.50;;
34876;SDS011;21086;44.780;17.194;2023-09-18T00:47:41;5.40;;;3.10;;
34876;SDS011;21086;44.780;17.194;2023-09-18T00:50:30;7.18;;;3.10;;
34876;SDS011;21086;44.780;17.194;2023-09-18T00:53:20;5.80;;;3.33;;
34876;SDS011;21086;44.780;17.194;2023-09-18T00:56:09;4.88;;;3.53;;
34876;SDS011;21086;44.780;17.194;2023-09-18T00:58:58;4.20;;;3.17;;
34876;SDS011;21086;44.780;17.194;2023-09-18T01:01:47;5.13;;;2.00;;
34876;SDS011;21086;44.780;17.194;2023-09-18T01:04:37;5.55;;;2.30;;
34876;SDS011;21086;44.780;17.194;2023-09-18T01:07:24;5.95;;;2.78;;
34876;SDS011;21086;44.780;17.194;2023-09-18T01:14:25;5.60;;;3.08;;
34876;SDS011;21086;44.780;17.194;2023-09-18T01:17:26;7.55;;;4.72;;
34876;SDS011;21086;44.780;17.194;2023-09-18T01:20:14;5.60;;;3.25;;
34876;SDS011;21086;44.780;17.194;2023-09-18T01:23:01;3.63;;;2.80;;
34876;SDS011;21086;44.780;17.194;2023-09-18T01:25:49;6.20;;;3.15;;
34876;SDS011;21086;44.780;17.194;2023-09-18T01:28:37;6.07;;;2.47;;
34876;SDS011;21086;44.780;17.194;2023-09-18T01:31:24;7.43;;;4.35;;
34876;SDS011;21086;44.780;17.194;2023-09-18T01:34:14;5.18;;;3.63;;
34876;SDS011;21086;44.780;17.194;2023-09-18T01:37:03;7.13;;;3.65;;
34876;SDS011;21086;44.780;17.194;2023-09-18T01:39:53;8.25;;;4.95;;
34876;SDS011;21086;44.780;17.194;2023-09-18T01:42:41;6.32;;;5.20;;
34876;SDS011;21086;44.780;17.194;2023-09-18T01:45:30;8.75;;;5.85;;
34876;SDS011;21086;44.780;17.194;2023-09-18T01:48:17;8.45;;;5.07;;
34876;SDS011;21086;44.780;17.194;2023-09-18T01:51:05;7.25;;;6.45;;
34876;SDS011;21086;44.780;17.194;2023-09-18T01:53:54;9.55;;;6.43;;
34876;SDS011;21086;44.780;17.194;2023-09-18T01:56:42;7.32;;;5.80;;
34876;SDS011;21086;44.780;17.194;2023-09-18T01:59:29;8.38;;;5.47;;
34876;SDS011;21086;44.780;17.194;2023-09-18T02:02:18;9.38;;;5.55;;
34876;SDS011;21086;44.780;17.194;2023-09-18T02:05:22;7.22;;;5.75;;
34876;SDS011;21086;44.780;17.194;2023-09-18T02:08:11;5.95;;;4.15;;
34876;SDS011;21086;44.780;17.194;2023-09-18T02:10:59;8.48;;;4.70;;
34876;SDS011;21086;44.780;17.194;2023-09-18T02:13:46;5.43;;;4.32;;
34876;SDS011;21086;44.780;17.194;2023-09-18T02:16:38;4.20;;;3.05;;
34876;SDS011;21086;44.780;17.194;2023-09-18T02:19:36;3.60;;;2.58;;
34876;SDS011;21086;44.780;17.194;2023-09-18T02:22:24;5.15;;;2.28;;
34876;SDS011;21086;44.780;17.194;2023-09-18T02:25:11;4.85;;;2.50;;
34876;SDS011;21086;44.780;17.194;2023-09-18T02:27:59;4.93;;;2.92;;
34876;SDS011;21086;44.780;17.194;2023-09-18T02:30:46;4.30;;;2.70;;
34876;SDS011;21086;44.780;17.194;2023-09-18T02:33:34;4.57;;;2.40;;
34876;SDS011;21086;44.780;17.194;2023-09-18T02:36:21;3.65;;;2.42;;
34876;SDS011;21086;44.780;17.194;2023-09-18T02:39:09;4.30;;;3.10;;
34876;SDS011;21086;44.780;17.194;2023-09-18T02:41:56;4.82;;;2.67;;
34876;SDS011;21086;44.780;17.194;2023-09-18T02:44:44;8.18;;;2.60;;
34876;SDS011;21086;44.780;17.194;2023-09-18T02:47:31;5.72;;;2.70;;
34876;SDS011;21086;44.780;17.194;2023-09-18T02:50:20;3.40;;;2.10;;
34876;SDS011;21086;44.780;17.194;2023-09-18T02:53:11;4.30;;;2.35;;
34876;SDS011;21086;44.780;17.194;2023-09-18T02:56:12;3.90;;;2.20;;
34876;SDS011;21086;44.780;17.194;2023-09-18T02:59:00;3.58;;;2.20;;
34876;SDS011;21086;44.780;17.194;2023-09-18T03:01:47;5.68;;;2.53;;
34876;SDS011;21086;44.780;17.194;2023-09-18T03:04:36;3.72;;;2.10;;
34876;SDS011;21086;44.780;17.194;2023-09-18T03:07:23;3.00;;;2.10;;
34876;SDS011;21086;44.780;17.194;2023-09-18T03:10:11;2.60;;;2.35;;
34876;SDS011;21086;44.780;17.194;2023-09-18T03:13:02;2.70;;;2.30;;
34876;SDS011;21086;44.780;17.194;2023-09-18T03:15:50;3.53;;;2.40;;
34876;SDS011;21086;44.780;17.194;2023-09-18T03:18:37;4.93;;;2.90;;
34876;SDS011;21086;44.780;17.194;2023-09-18T03:21:25;5.55;;;3.55;;
34876;SDS011;21086;44.780;17.194;2023-09-18T03:24:12;10.85;;;3.50;;
34876;SDS011;21086;44.780;17.194;2023-09-18T03:27:00;5.10;;;3.33;;
34876;SDS011;21086;44.780;17.194;2023-09-18T03:29:48;8.40;;;3.22;;
34876;SDS011;21086;44.780;17.194;2023-09-18T03:32:35;6.40;;;3.50;;
34876;SDS011;21086;44.780;17.194;2023-09-18T03:35:22;6.28;;;2.97;;
34876;SDS011;21086;44.780;17.194;2023-09-18T03:38:10;5.78;;;2.58;;
34876;SDS011;21086;44.780;17.194;2023-09-18T03:41:01;6.05;;;2.65;;
34876;SDS011;21086;44.780;17.194;2023-09-18T03:43:48;4.28;;;2.65;;
34876;SDS011;21086;44.780;17.194;2023-09-18T03:46:37;6.65;;;2.90;;
34876;SDS011;21086;44.780;17.194;2023-09-18T03:49:24;4.95;;;2.63;;
34876;SDS011;21086;44.780;17.194;2023-09-18T03:52:13;6.18;;;3.15;;
34876;SDS011;21086;44.780;17.194;2023-09-18T03:55:01;4.18;;;2.53;;
34876;SDS011;21086;44.780;17.194;2023-09-18T03:57:49;4.30;;;2.50;;
34876;SDS011;21086;44.780;17.194;2023-09-18T04:00:39;3.58;;;2.53;;
34876;SDS011;21086;44.780;17.194;2023-09-18T04:03:27;3.75;;;2.72;;
34876;SDS011;21086;44.780;17.194;2023-09-18T04:06:15;4.03;;;2.50;;
34876;SDS011;21086;44.780;17.194;2023-09-18T04:09:02;4.22;;;2.55;;
34876;SDS011;21086;44.780;17.194;2023-09-18T04:11:52;4.25;;;3.00;;
34876;SDS011;21086;44.780;17.194;2023-09-18T04:14:42;7.78;;;3.33;;
34876;SDS011;21086;44.780;17.194;2023-09-18T04:17:29;5.07;;;3.45;;
34876;SDS011;21086;44.780;17.194;2023-09-18T04:20:16;5.10;;;3.35;;
34876;SDS011;21086;44.780;17.194;2023-09-18T04:23:24;4.60;;;2.95;;
34876;SDS011;21086;44.780;17.194;2023-09-18T04:26:13;4.75;;;3.13;;
34876;SDS011;21086;44.780;17.194;2023-09-18T04:29:05;4.55;;;2.80;;
34876;SDS011;21086;44.780;17.194;2023-09-18T04:31:52;3.95;;;2.85;;
34876;SDS011;21086;44.780;17.194;2023-09-18T04:34:41;3.38;;;2.50;;
34876;SDS011;21086;44.780;17.194;2023-09-18T04:37:29;8.90;;;3.70;;
34876;SDS011;21086;44.780;17.194;2023-09-18T04:40:16;7.05;;;2.80;;
34876;SDS011;21086;44.780;17.194;2023-09-18T04:43:03;6.13;;;3.30;;
34876;SDS011;21086;44.780;17.194;2023-09-18T04:45:51;3.47;;;2.72;;
34876;SDS011;21086;44.780;17.194;2023-09-18T04:48:38;4.88;;;2.70;;
34876;SDS011;21086;44.780;17.194;2023-09-18T04:51:25;5.93;;;2.90;;
34876;SDS011;21086;44.780;17.194;2023-09-18T04:54:13;3.00;;;2.38;;
34876;SDS011;21086;44.780;17.194;2023-09-18T04:57:02;5.38;;;2.63;;
34876;SDS011;21086;44.780;17.194;2023-09-18T04:59:50;4.53;;;2.85;;
34876;SDS011;21086;44.780;17.194;2023-09-18T05:02:57;5.13;;;2.90;;
34876;SDS011;21086;44.780;17.194;2023-09-18T05:05:50;6.28;;;3.25;;
34876;SDS011;21086;44.780;17.194;2023-09-18T05:08:37;5.32;;;3.22;;
34876;SDS011;21086;44.780;17.194;2023-09-18T05:11:26;6.45;;;3.17;;
34876;SDS011;21086;44.780;17.194;2023-09-18T05:14:13;4.75;;;2.90;;
34876;SDS011;21086;44.780;17.194;2023-09-18T05:17:02;3.75;;;2.60;;
34876;SDS011;21086;44.780;17.194;2023-09-18T05:19:50;5.57;;;2.60;;
34876;SDS011;21086;44.780;17.194;2023-09-18T05:22:37;4.68;;;3.03;;
34876;SDS011;21086;44.780;17.194;2023-09-18T05:25:25;8.18;;;3.25;;
34876;SDS011;21086;44.780;17.194;2023-09-18T05:28:14;6.15;;;3.40;;
34876;SDS011;21086;44.780;17.194;2023-09-18T05:31:01;8.05;;;2.83;;
34876;SDS011;21086;44.780;17.194;2023-09-18T05:33:49;5.93;;;2.72;;
34876;SDS011;21086;44.780;17.194;2023-09-18T05:36:36;8.15;;;2.95;;
34876;SDS011;21086;44.780;17.194;2023-09-18T05:39:24;4.57;;;2.83;;
34876;SDS011;21086;44.780;17.194;2023-09-18T05:42:11;5.72;;;2.80;;
34876;SDS011;21086;44.780;17.194;2023-09-18T05:45:00;9.20;;;3.03;;
34876;SDS011;21086;44.780;17.194;2023-09-18T05:47:48;7.88;;;2.75;;
34876;SDS011;21086;44.780;17.194;2023-09-18T05:50:37;9.55;;;2.75;;
34876;SDS011;21086;44.780;17.194;2023-09-18T05:53:27;6.10;;;2.42;;
34876;SDS011;21086;44.780;17.194;2023-09-18T05:56:14;6.57;;;3.10;;
34876;SDS011;21086;44.780;17.194;2023-09-18T05:59:03;6.65;;;2.53;;
34876;SDS011;21086;44.780;17.194;2023-09-18T06:01:52;5.32;;;2.28;;
34876;SDS011;21086;44.780;17.194;2023-09-18T06:04:40;7.55;;;2.03;;
34876;SDS011;21086;44.780;17.194;2023-09-18T06:07:27;3.60;;;2.15;;
34876;SDS011;21086;44.780;17.194;2023-09-18T06:10:15;3.75;;;1.85;;
34876;SDS011;21086;44.780;17.194;2023-09-18T06:13:04;6.05;;;2.50;;
34876;SDS011;21086;44.780;17.194;2023-09-18T06:15:55;4.10;;;2.25;;
34876;SDS011;21086;44.780;17.194;2023-09-18T06:18:43;2.88;;;2.10;;
34876;SDS011;21086;44.780;17.194;2023-09-18T06:21:30;3.95;;;2.10;;
34876;SDS011;21086;44.780;17.194;2023-09-18T06:24:20;2.70;;;2.10;;
34876;SDS011;21086;44.780;17.194;2023-09-18T06:27:07;7.18;;;2.58;;
34876;SDS011;21086;44.780;17.194;2023-09-18T06:29:55;5.32;;;2.30;;
34876;SDS011;21086;44.780;17.194;2023-09-18T06:32:42;3.30;;;2.15;;
34876;SDS011;21086;44.780;17.194;2023-09-18T06:35:30;7.78;;;2.75;;
34876;SDS011;21086;44.780;17.194;2023-09-18T06:38:17;3.53;;;2.42;;
34876;SDS011;21086;44.780;17.194;2023-09-18T06:41:04;4.82;;;2.42;;
34876;SDS011;21086;44.780;17.194;2023-09-18T06:43:51;4.30;;;2.10;;
34876;SDS011;21086;44.780;17.194;2023-09-18T06:46:39;5.38;;;2.17;;
34876;SDS011;21086;44.780;17.194;2023-09-18T06:49:27;4.60;;;2.30;;
34876;SDS011;21086;44.780;17.194;2023-09-18T06:52:15;4.22;;;1.92;;
34876;SDS011;21086;44.780;17.194;2023-09-18T06:55:03;5.38;;;2.13;;
34876;SDS011;21086;44.780;17.194;2023-09-18T06:57:51;2.45;;;1.75;;
34876;SDS011;21086;44.780;17.194;2023-09-18T07:00:40;32.05;;;5.35;;
34876;SDS011;21086;44.780;17.194;2023-09-18T07:03:27;5.35;;;1.42;;
34876;SDS011;21086;44.780;17.194;2023-09-18T07:06:15;5.07;;;1.85;;
34876;SDS011;21086;44.780;17.194;2023-09-18T07:09:02;6.32;;;1.83;;
34876;SDS011;21086;44.780;17.194;2023-09-18T07:11:53;2.95;;;1.83;;
34876;SDS011;21086;44.780;17.194;2023-09-18T07:14:40;4.35;;;1.67;;
34876;SDS011;21086;44.780;17.194;2023-09-18T07:17:28;4.15;;;1.98;;
34876;SDS011;21086;44.780;17.194;2023-09-18T07:20:15;3.85;;;2.22;;
34876;SDS011;21086;44.780;17.194;2023-09-18T07:23:05;6.53;;;2.00;;
34876;SDS011;21086;44.780;17.194;2023-09-18T07:25:53;2.33;;;1.60;;
34876;SDS011;21086;44.780;17.194;2023-09-18T07:28:40;3.00;;;1.85;;
34876;SDS011;21086;44.780;17.194;2023-09-18T07:31:28;2.33;;;1.70;;
34876;SDS011;21086;44.780;17.194;2023-09-18T07:34:15;4.05;;;1.90;;
34876;SDS011;21086;44.780;17.194;2023-09-18T07:37:03;4.28;;;1.85;;
34876;SDS011;21086;44.780;17.194;2023-09-18T07:39:51;9.60;;;1.73;;
34876;SDS011;21086;44.780;17.194;2023-09-18T07:42:38;3.92;;;1.92;;
34876;SDS011;21086;44.780;17.194;2023-09-18T07:45:25;7.68;;;2.10;;
34876;SDS011;21086;44.780;17.194;2023-09-18T07:48:13;6.10;;;1.83;;
34876;SDS011;21086;44.780;17.194;2023-09-18T07:51:00;4.03;;;1.52;;
34876;SDS011;21086;44.780;17.194;2023-09-18T07:53:47;2.22;;;1.55;;
34876;SDS011;21086;44.780;17.194;2023-09-18T07:56:34;3.40;;;1.77;;
34876;SDS011;21086;44.780;17.194;2023-09-18T07:59:23;12.80;;;3.33;;
34876;SDS011;21086;44.780;17.194;2023-09-18T08:02:12;4.32;;;2.10;;
34876;SDS011;21086;44.780;17.194;2023-09-18T08:04:59;3.72;;;1.70;;
34876;SDS011;21086;44.780;17.194;2023-09-18T08:07:46;4.28;;;2.45;;
34876;SDS011;21086;44.780;17.194;2023-09-18T08:10:36;8.80;;;2.33;;
34876;SDS011;21086;44.780;17.194;2023-09-18T08:13:24;3.03;;;1.80;;
34876;SDS011;21086;44.780;17.194;2023-09-18T08:16:11;3.72;;;1.70;;
34876;SDS011;21086;44.780;17.194;2023-09-18T08:19:01;2.67;;;1.70;;
34876;SDS011;21086;44.780;17.194;2023-09-18T08:21:51;2.55;;;1.50;;
34876;SDS011;21086;44.780;17.194;2023-09-18T08:24:51;3.53;;;1.70;;
34876;SDS011;21086;44.780;17.194;2023-09-18T08:27:39;3.55;;;1.90;;
34876;SDS011;21086;44.780;17.194;2023-09-18T08:30:39;4.72;;;1.90;;
34876;SDS011;21086;44.780;17.194;2023-09-18T08:33:27;7.10;;;1.63;;
34876;SDS011;21086;44.780;17.194;2023-09-18T08:36:14;3.83;;;1.83;;
34876;SDS011;21086;44.780;17.194;2023-09-18T08:39:02;8.40;;;2.33;;
34876;SDS011;21086;44.780;17.194;2023-09-18T08:41:54;10.07;;;2.20;;
34876;SDS011;21086;44.780;17.194;2023-09-18T08:44:46;2.33;;;1.65;;
34876;SDS011;21086;44.780;17.194;2023-09-18T08:47:38;11.80;;;3.35;;
34876;SDS011;21086;44.780;17.194;2023-09-18T08:50:29;2.25;;;1.27;;
34876;SDS011;21086;44.780;17.194;2023-09-18T08:53:17;4.25;;;1.73;;
34876;SDS011;21086;44.780;17.194;2023-09-18T08:56:08;3.60;;;1.70;;
34876;SDS011;21086;44.780;17.194;2023-09-18T08:58:59;3.85;;;2.00;;
34876;SDS011;21086;44.780;17.194;2023-09-18T09:01:46;3.83;;;1.70;;
34876;SDS011;21086;44.780;17.194;2023-09-18T09:04:33;2.53;;;1.80;;
34876;SDS011;21086;44.780;17.194;2023-09-18T09:07:21;3.92;;;2.15;;
34876;SDS011;21086;44.780;17.194;2023-09-18T09:10:08;1.98;;;1.30;;
34876;SDS011;21086;44.780;17.194;2023-09-18T09:12:57;8.02;;;1.60;;
34876;SDS011;21086;44.780;17.194;2023-09-18T09:15:48;6.43;;;1.75;;
34876;SDS011;21086;44.780;17.194;2023-09-18T09:18:47;4.10;;;1.63;;
34876;SDS011;21086;44.780;17.194;2023-09-18T09:21:39;5.30;;;1.88;;
34876;SDS011;21086;44.780;17.194;2023-09-18T09:27:24;6.53;;;1.77;;
34876;SDS011;21086;44.780;17.194;2023-09-18T09:30:15;7.05;;;1.80;;
34876;SDS011;21086;44.780;17.194;2023-09-18T09:33:06;6.20;;;1.90;;
34876;SDS011;21086;44.780;17.194;2023-09-18T09:35:55;3.88;;;1.70;;
34876;SDS011;21086;44.780;17.194;2023-09-18T09:38:43;5.07;;;1.40;;
34876;SDS011;21086;44.780;17.194;2023-09-18T09:41:31;5.97;;;1.67;;
34876;SDS011;21086;44.780;17.194;2023-09-18T09:44:20;2.22;;;1.20;;
34876;SDS011;21086;44.780;17.194;2023-09-18T09:47:07;7.45;;;1.63;;
34876;SDS011;21086;44.780;17.194;2023-09-18T09:49:57;4.15;;;1.30;;
34876;SDS011;21086;44.780;17.194;2023-09-18T09:52:53;6.47;;;2.20;;
34876;SDS011;21086;44.780;17.194;2023-09-18T09:55:41;5.47;;;1.38;;
34876;SDS011;21086;44.780;17.194;2023-09-18T09:58:28;4.85;;;1.55;;
34876;SDS011;21086;44.780;17.194;2023-09-18T10:01:17;6.07;;;1.73;;
34876;SDS011;21086;44.780;17.194;2023-09-18T10:04:08;5.25;;;1.65;;
34876;SDS011;21086;44.780;17.194;2023-09-18T10:07:07;4.72;;;1.50;;
34876;SDS011;21086;44.780;17.194;2023-09-18T10:09:56;2.88;;;1.38;;
34876;SDS011;21086;44.780;17.194;2023-09-18T10:12:44;2.83;;;1.38;;
34876;SDS011;21086;44.780;17.194;2023-09-18T10:15:36;6.88;;;1.52;;
34876;SDS011;21086;44.780;17.194;2023-09-18T10:18:32;4.18;;;1.60;;
34876;SDS011;21086;44.780;17.194;2023-09-18T10:24:24;5.18;;;1.40;;
34876;SDS011;21086;44.780;17.194;2023-09-18T10:27:15;6.45;;;1.60;;
34876;SDS011;21086;44.780;17.194;2023-09-18T10:30:08;7.57;;;1.77;;
34876;SDS011;21086;44.780;17.194;2023-09-18T10:32:57;4.38;;;1.45;;
34876;SDS011;21086;44.780;17.194;2023-09-18T10:35:48;4.70;;;1.45;;
34876;SDS011;21086;44.780;17.194;2023-09-18T10:38:36;7.80;;;1.70;;
34876;SDS011;21086;44.780;17.194;2023-09-18T10:41:25;3.00;;;1.52;;
34876;SDS011;21086;44.780;17.194;2023-09-18T10:44:13;5.55;;;1.40;;
34876;SDS011;21086;44.780;17.194;2023-09-18T10:47:03;5.07;;;1.55;;
34876;SDS011;21086;44.780;17.194;2023-09-18T10:49:52;6.70;;;2.00;;
34876;SDS011;21086;44.780;17.194;2023-09-18T10:52:43;8.80;;;1.80;;
34876;SDS011;21086;44.780;17.194;2023-09-18T10:55:33;5.53;;;1.40;;
34876;SDS011;21086;44.780;17.194;2023-09-18T10:58:23;6.13;;;1.50;;
34876;SDS011;21086;44.780;17.194;2023-09-18T11:01:14;7.65;;;2.25;;
34876;SDS011;21086;44.780;17.194;2023-09-18T11:04:02;7.78;;;1.95;;
34876;SDS011;21086;44.780;17.194;2023-09-18T11:09:42;4.20;;;1.45;;
34876;SDS011;21086;44.780;17.194;2023-09-18T11:12:44;6.43;;;1.48;;
34876;SDS011;21086;44.780;17.194;2023-09-18T11:15:32;4.88;;;1.10;;
34876;SDS011;21086;44.780;17.194;2023-09-18T11:18:19;9.68;;;2.55;;
34876;SDS011;21086;44.780;17.194;2023-09-18T11:21:12;3.95;;;1.20;;
34876;SDS011;21086;44.780;17.194;2023-09-18T11:24:02;4.20;;;1.27;;
34876;SDS011;21086;44.780;17.194;2023-09-18T11:26:54;7.43;;;1.70;;
34876;SDS011;21086;44.780;17.194;2023-09-18T11:29:45;5.95;;;1.13;;
34876;SDS011;21086;44.780;17.194;2023-09-18T11:32:39;5.22;;;1.20;;
34876;SDS011;21086;44.780;17.194;2023-09-18T11:35:27;10.05;;;1.90;;
34876;SDS011;21086;44.780;17.194;2023-09-18T11:38:15;3.63;;;1.60;;
34876;SDS011;21086;44.780;17.194;2023-09-18T11:47:12;4.55;;;1.45;;
34876;SDS011;21086;44.780;17.194;2023-09-18T11:50:07;8.00;;;1.40;;
34876;SDS011;21086;44.780;17.194;2023-09-18T11:52:58;2.88;;;1.33;;
34876;SDS011;21086;44.780;17.194;2023-09-18T11:55:46;4.60;;;0.93;;
34876;SDS011;21086;44.780;17.194;2023-09-18T11:58:44;6.97;;;1.20;;
34876;SDS011;21086;44.780;17.194;2023-09-18T12:01:33;3.45;;;1.10;;
34876;SDS011;21086;44.780;17.194;2023-09-18T12:04:29;3.72;;;0.95;;
34876;SDS011;21086;44.780;17.194;2023-09-18T12:07:17;7.13;;;1.23;;
34876;SDS011;21086;44.780;17.194;2023-09-18T12:10:06;2.80;;;1.00;;
34876;SDS011;21086;44.780;17.194;2023-09-18T12:12:56;5.22;;;1.40;;
34876;SDS011;21086;44.780;17.194;2023-09-18T12:15:44;8.07;;;1.20;;
34876;SDS011;21086;44.780;17.194;2023-09-18T12:18:32;8.07;;;1.33;;
34876;SDS011;21086;44.780;17.194;2023-09-18T12:21:24;6.68;;;1.10;;
34876;SDS011;21086;44.780;17.194;2023-09-18T12:24:15;5.35;;;1.23;;
34876;SDS011;21086;44.780;17.194;2023-09-18T12:27:12;4.03;;;1.75;;
34876;SDS011;21086;44.780;17.194;2023-09-18T12:29:59;3.95;;;1.00;;
34876;SDS011;21086;44.780;17.194;2023-09-18T12:32:51;4.47;;;1.30;;
34876;SDS011;21086;44.780;17.194;2023-09-18T12:35:40;3.65;;;1.13;;
34876;SDS011;21086;44.780;17.194;2023-09-18T12:38:28;6.60;;;1.45;;
34876;SDS011;21086;44.780;17.194;2023-09-18T12:41:17;8.73;;;1.30;;
34876;SDS011;21086;44.780;17.194;2023-09-18T12:44:05;3.95;;;1.10;;
34876;SDS011;21086;44.780;17.194;2023-09-18T12:46:53;9.73;;;1.25;;
34876;SDS011;21086;44.780;17.194;2023-09-18T12:49:40;4.53;;;1.10;;
34876;SDS011;21086;44.780;17.194;2023-09-18T12:52:30;6.95;;;1.40;;
34876;SDS011;21086;44.780;17.194;2023-09-18T12:55:25;8.23;;;1.50;;
34876;SDS011;21086;44.780;17.194;2023-09-18T12:58:18;8.35;;;1.77;;
34876;SDS011;21086;44.780;17.194;2023-09-18T13:01:06;4.38;;;1.25;;
34876;SDS011;21086;44.780;17.194;2023-09-18T13:03:54;4.22;;;1.30;;
34876;SDS011;21086;44.780;17.194;2023-09-18T13:06:47;6.38;;;1.58;;
34876;SDS011;21086;44.780;17.194;2023-09-18T13:10:04;15.65;;;1.70;;
34876;SDS011;21086;44.780;17.194;2023-09-18T13:12:56;4.03;;;1.08;;
34876;SDS011;21086;44.780;17.194;2023-09-18T13:15:45;4.70;;;1.23;;
34876;SDS011;21086;44.780;17.194;2023-09-18T13:18:34;3.42;;;1.20;;
34876;SDS011;21086;44.780;17.194;2023-09-18T13:21:22;5.43;;;1.13;;
34876;SDS011;21086;44.780;17.194;2023-09-18T13:24:23;8.82;;;1.85;;
34876;SDS011;21086;44.780;17.194;2023-09-18T13:27:15;4.43;;;1.38;;
34876;SDS011;21086;44.780;17.194;2023-09-18T13:30:06;6.43;;;1.30;;
34876;SDS011;21086;44.780;17.194;2023-09-18T13:33:02;4.97;;;1.90;;
34876;SDS011;21086;44.780;17.194;2023-09-18T13:35:53;5.18;;;1.20;;
34876;SDS011;21086;44.780;17.194;2023-09-18T13:38:40;5.63;;;1.52;;
34876;SDS011;21086;44.780;17.194;2023-09-18T13:41:27;6.85;;;1.60;;
34876;SDS011;21086;44.780;17.194;2023-09-18T13:44:15;3.92;;;1.33;;
34876;SDS011;21086;44.780;17.194;2023-09-18T13:47:08;3.90;;;1.25;;
34876;SDS011;21086;44.780;17.194;2023-09-18T13:49:55;6.93;;;1.40;;
34876;SDS011;21086;44.780;17.194;2023-09-18T13:52:46;3.63;;;1.25;;
34876;SDS011;21086;44.780;17.194;2023-09-18T13:55:36;4.28;;;1.65;;
34876;SDS011;21086;44.780;17.194;2023-09-18T13:58:23;5.57;;;1.23;;
34876;SDS011;21086;44.780;17.194;2023-09-18T14:01:10;6.47;;;1.60;;
34876;SDS011;21086;44.780;17.194;2023-09-18T14:03:58;7.35;;;1.58;;
34876;SDS011;21086;44.780;17.194;2023-09-18T14:06:45;4.97;;;1.65;;
34876;SDS011;21086;44.780;17.194;2023-09-18T14:09:33;6.28;;;1.30;;
34876;SDS011;21086;44.780;17.194;2023-09-18T14:12:21;7.45;;;1.58;;
34876;SDS011;21086;44.780;17.194;2023-09-18T14:15:12;3.45;;;1.25;;
34876;SDS011;21086;44.780;17.194;2023-09-18T14:18:00;9.77;;;1.60;;
34876;SDS011;21086;44.780;17.194;2023-09-18T14:20:48;5.65;;;1.30;;
34876;SDS011;21086;44.780;17.194;2023-09-18T14:23:35;5.25;;;1.70;;
34876;SDS011;21086;44.780;17.194;2023-09-18T14:26:23;9.85;;;2.20;;
34876;SDS011;21086;44.780;17.194;2023-09-18T14:29:10;7.57;;;2.70;;
34876;SDS011;21086;44.780;17.194;2023-09-18T14:31:58;8.55;;;1.73;;
34876;SDS011;21086;44.780;17.194;2023-09-18T14:34:45;6.80;;;1.60;;
34876;SDS011;21086;44.780;17.194;2023-09-18T14:37:33;6.68;;;1.67;;
34876;SDS011;21086;44.780;17.194;2023-09-18T14:40:20;4.72;;;1.65;;
34876;SDS011;21086;44.780;17.194;2023-09-18T14:43:08;7.20;;;1.88;;
34876;SDS011;21086;44.780;17.194;2023-09-18T14:45:55;6.15;;;1.40;;
34876;SDS011;21086;44.780;17.194;2023-09-18T14:48:43;7.30;;;1.48;;
34876;SDS011;21086;44.780;17.194;2023-09-18T14:51:31;4.68;;;1.73;;
34876;SDS011;21086;44.780;17.194;2023-09-18T14:54:19;10.23;;;1.70;;
34876;SDS011;21086;44.780;17.194;2023-09-18T14:57:07;9.93;;;1.65;;
34876;SDS011;21086;44.780;17.194;2023-09-18T14:59:54;5.65;;;1.52;;
34876;SDS011;21086;44.780;17.194;2023-09-18T15:02:41;13.90;;;1.90;;
34876;SDS011;21086;44.780;17.194;2023-09-18T15:05:29;5.47;;;1.85;;
34876;SDS011;21086;44.780;17.194;2023-09-18T15:08:16;13.05;;;2.17;;
34876;SDS011;21086;44.780;17.194;2023-09-18T15:11:11;7.53;;;1.55;;
34876;SDS011;21086;44.780;17.194;2023-09-18T15:13:59;4.25;;;1.40;;
34876;SDS011;21086;44.780;17.194;2023-09-18T15:16:48;4.28;;;1.52;;
34876;SDS011;21086;44.780;17.194;2023-09-18T15:19:35;6.07;;;1.80;;
34876;SDS011;21086;44.780;17.194;2023-09-18T15:22:23;5.00;;;1.23;;
34876;SDS011;21086;44.780;17.194;2023-09-18T15:25:11;7.07;;;1.77;;
34876;SDS011;21086;44.780;17.194;2023-09-18T15:27:59;7.03;;;1.67;;
34876;SDS011;21086;44.780;17.194;2023-09-18T15:30:46;9.15;;;1.83;;
34876;SDS011;21086;44.780;17.194;2023-09-18T15:33:34;8.55;;;2.00;;
34876;SDS011;21086;44.780;17.194;2023-09-18T15:36:21;7.13;;;3.05;;
34876;SDS011;21086;44.780;17.194;2023-09-18T15:39:11;8.63;;;3.42;;
34876;SDS011;21086;44.780;17.194;2023-09-18T15:41:59;6.28;;;2.50;;
34876;SDS011;21086;44.780;17.194;2023-09-18T15:44:47;10.38;;;2.97;;
34876;SDS011;21086;44.780;17.194;2023-09-18T15:47:35;8.63;;;2.38;;
34876;SDS011;21086;44.780;17.194;2023-09-18T15:50:22;8.43;;;2.13;;
34876;SDS011;21086;44.780;17.194;2023-09-18T15:53:10;15.52;;;2.42;;
34876;SDS011;21086;44.780;17.194;2023-09-18T15:55:57;11.25;;;2.60;;
34876;SDS011;21086;44.780;17.194;2023-09-18T15:58:46;7.53;;;2.55;;
34876;SDS011;21086;44.780;17.194;2023-09-18T16:01:33;8.13;;;2.72;;
34876;SDS011;21086;44.780;17.194;2023-09-18T16:04:22;12.20;;;2.20;;
34876;SDS011;21086;44.780;17.194;2023-09-18T16:07:10;8.32;;;2.58;;
34876;SDS011;21086;44.780;17.194;2023-09-18T16:09:59;6.75;;;3.22;;
34876;SDS011;21086;44.780;17.194;2023-09-18T16:12:50;7.05;;;2.72;;
34876;SDS011;21086;44.780;17.194;2023-09-18T16:15:37;8.93;;;2.60;;
34876;SDS011;21086;44.780;17.194;2023-09-18T16:18:25;5.43;;;2.10;;
34876;SDS011;21086;44.780;17.194;2023-09-18T16:21:12;8.90;;;2.78;;
34876;SDS011;21086;44.780;17.194;2023-09-18T16:23:59;9.43;;;2.33;;
34876;SDS011;21086;44.780;17.194;2023-09-18T16:26:46;13.57;;;3.80;;
34876;SDS011;21086;44.780;17.194;2023-09-18T16:29:34;7.97;;;2.63;;
34876;SDS011;21086;44.780;17.194;2023-09-18T16:32:21;8.00;;;2.30;;
34876;SDS011;21086;44.780;17.194;2023-09-18T16:35:09;8.95;;;2.20;;
34876;SDS011;21086;44.780;17.194;2023-09-18T16:37:56;6.75;;;1.88;;
34876;SDS011;21086;44.780;17.194;2023-09-18T16:40:43;6.05;;;2.05;;
34876;SDS011;21086;44.780;17.194;2023-09-18T16:43:34;7.10;;;2.53;;
34876;SDS011;21086;44.780;17.194;2023-09-18T16:46:25;5.03;;;2.15;;
34876;SDS011;21086;44.780;17.194;2023-09-18T16:49:12;4.85;;;2.35;;
34876;SDS011;21086;44.780;17.194;2023-09-18T16:52:04;7.57;;;2.53;;
34876;SDS011;21086;44.780;17.194;2023-09-18T16:54:52;10.32;;;3.25;;
34876;SDS011;21086;44.780;17.194;2023-09-18T16:57:41;5.43;;;2.60;;
34876;SDS011;21086;44.780;17.194;2023-09-18T17:00:35;9.57;;;3.45;;